Observation data for Sundown on 03/05/2021      Previous  Date  Next       Current Mesonet Observations  Soil Data  Daily Summary Page  Observations in Plain Language
KSDS 050600Z 30022G30KT 12/M07 A2998 RMK A01 T01231067  RH  026%=      5-min Rain = 0
KSDS 050605Z 30023G29KT 12/M07 A2998 RMK A01 T01231069  RH  026%=      5-min Rain = 0
KSDS 050610Z 31021G27KT 12/M07 A2999 RMK A01 T01221070  RH  025%=      5-min Rain = 0
KSDS 050615Z 31021G26KT 12/M07 A2998 RMK A01 T01201071  RH  026%=      5-min Rain = 0
KSDS 050620Z 31021G28KT 12/M07 A2998 RMK A01 T01201070  RH  026%=      5-min Rain = 0
KSDS 050625Z 31021G27KT 12/M07 A2998 RMK A01 T01191069  RH  026%=      5-min Rain = 0
KSDS 050630Z 30020G25KT 12/M07 A2998 RMK A01 T01171069  RH  027%=      5-min Rain = 0
KSDS 050635Z 30018G24KT 11/M07 A2998 RMK A01 T01141068  RH  027%=      5-min Rain = 0
KSDS 050640Z 30020KT 11/M07 A2998 RMK A01 T01131068  RH  027%=      5-min Rain = 0
KSDS 050645Z 30018KT 11/M07 A2999 RMK A01 T01111068  RH  028%=      5-min Rain = 0
KSDS 050650Z 30017G22KT 11/M07 A2999 RMK A01 T01091068  RH  028%=      5-min Rain = 0
KSDS 050655Z 30017KT 11/M07 A2999 RMK A01 T01071067  RH  029%=      5-min Rain = 0
KSDS 050700Z 30016G21KT 11/M07 A2999 RMK A01 T01061067  RH  029%=      5-min Rain = 0
KSDS 050705Z 30017KT 11/M07 A2999 RMK A01 T01051067  RH  029%=      5-min Rain = 0
KSDS 050710Z 30016G21KT 10/M07 A2999 RMK A01 T01031066  RH  030%=      5-min Rain = 0
KSDS 050715Z 30017G22KT 10/M07 A2999 RMK A01 T01041066  RH  030%=      5-min Rain = 0
KSDS 050720Z 30018KT 10/M07 A2999 RMK A01 T01041066  RH  030%=      5-min Rain = 0
KSDS 050725Z 30017KT 10/M07 A2999 RMK A01 T01011066  RH  030%=      5-min Rain = 0
KSDS 050730Z 30016G21KT 10/M07 A2999 RMK A01 T00991066  RH  031%=      5-min Rain = 0
KSDS 050735Z 30016G23KT 10/M07 A2999 RMK A01 T00981066  RH  031%=      5-min Rain = 0
KSDS 050740Z 30017G22KT 10/M07 A2999 RMK A01 T00971066  RH  031%=      5-min Rain = 0
KSDS 050745Z 29016KT 10/M07 A2999 RMK A01 T00961065  RH  031%=      5-min Rain = 0
KSDS 050750Z 29016KT 09/M07 A30 RMK A01 T00941065  RH  032%=      5-min Rain = 0
KSDS 050755Z 29016G21KT 09/M06 A30 RMK A01 T00911064  RH  033%=      5-min Rain = 0
KSDS 050800Z 29016KT 09/M07 A30 RMK A01 T00891065  RH  033%=      5-min Rain = 0
KSDS 050805Z 29015KT 09/M07 A30 RMK A01 T00871065  RH  034%=      5-min Rain = 0
KSDS 050810Z 29014KT 09/M06 A30 RMK A01 T00851064  RH  034%=      5-min Rain = 0
KSDS 050815Z 29014KT 08/M06 A30 RMK A01 T00831064  RH  035%=      5-min Rain = 0
KSDS 050820Z 29013KT 08/M06 A30 RMK A01 T00801064  RH  035%=      5-min Rain = 0
KSDS 050825Z 30012KT 08/M06 A3001 RMK A01 T00771064  RH  036%=      5-min Rain = 0
KSDS 050830Z 30013KT 08/M06 A3001 RMK A01 T00771063  RH  036%=      5-min Rain = 0
KSDS 050835Z 31013KT 08/M06 A3001 RMK A01 T00781062  RH  036%=      5-min Rain = 0
KSDS 050840Z 30013KT 08/M06 A3001 RMK A01 T00771062  RH  037%=      5-min Rain = 0
KSDS 050845Z 30015KT 08/M06 A3001 RMK A01 T00781062  RH  036%=      5-min Rain = 0
KSDS 050850Z 31014KT 08/M06 A3002 RMK A01 T00771062  RH  037%=      5-min Rain = 0
KSDS 050855Z 31013KT 07/M06 A3002 RMK A01 T00741062  RH  037%=      5-min Rain = 0
KSDS 050900Z 31012KT 07/M06 A3002 RMK A01 T00701062  RH  038%=      5-min Rain = 0
KSDS 050905Z 31014KT 07/M06 A3003 RMK A01 T00711061  RH  039%=      5-min Rain = 0
KSDS 050910Z 31015KT 07/M06 A3002 RMK A01 T00731060  RH  038%=      5-min Rain = 0
KSDS 050915Z 31015G20KT 08/M06 A3002 RMK A01 T00751060  RH  038%=      5-min Rain = 0
KSDS 050920Z 31015G20KT 07/M06 A3002 RMK A01 T00741060  RH  038%=      5-min Rain = 0
KSDS 050925Z 31015KT 07/M06 A3002 RMK A01 T00741061  RH  038%=      5-min Rain = 0
KSDS 050930Z 32016KT 07/M06 A3002 RMK A01 T00731061  RH  038%=      5-min Rain = 0
KSDS 050935Z 32015G20KT 07/M06 A3002 RMK A01 T00711061  RH  038%=      5-min Rain = 0
KSDS 050940Z 32014KT 07/M06 A3002 RMK A01 T00701062  RH  039%=      5-min Rain = 0
KSDS 050945Z 31013KT 07/M06 A3002 RMK A01 T00691062  RH  039%=      5-min Rain = 0
KSDS 050950Z 31013KT 07/M06 A3002 RMK A01 T00681062  RH  039%=      5-min Rain = 0
KSDS 050955Z 31012KT 07/M06 A3002 RMK A01 T00651062  RH  040%=      5-min Rain = 0
KSDS 051000Z 31012KT 06/M06 A3002 RMK A01 T00641062  RH  040%=      5-min Rain = 0
KSDS 051005Z 31013KT 07/M06 A3002 RMK A01 T00651061  RH  040%=      5-min Rain = 0
KSDS 051010Z 31014KT 07/M06 A3002 RMK A01 T00651061  RH  040%=      5-min Rain = 0
KSDS 051015Z 31015KT 07/M06 A3003 RMK A01 T00651060  RH  040%=      5-min Rain = 0
KSDS 051020Z 31015G20KT 07/M06 A3003 RMK A01 T00661060  RH  040%=      5-min Rain = 0
KSDS 051025Z 32016G22KT 07/M06 A3003 RMK A01 T00661059  RH  041%=      5-min Rain = 0
KSDS 051030Z 32015KT 07/M06 A3003 RMK A01 T00671057  RH  041%=      5-min Rain = 0
KSDS 051035Z 32014KT 07/M06 A3003 RMK A01 T00651059  RH  041%=      5-min Rain = 0
KSDS 051040Z 32014KT 06/M06 A3003 RMK A01 T00641060  RH  041%=      5-min Rain = 0
KSDS 051045Z 32014KT 06/M06 A3003 RMK A01 T00631058  RH  042%=      5-min Rain = 0
KSDS 051050Z 32014KT 06/M06 A3004 RMK A01 T00641055  RH  042%=      5-min Rain = 0
KSDS 051055Z 32014KT 06/M05 A3004 RMK A01 T00641054  RH  043%=      5-min Rain = 0
KSDS 051100Z 31015KT 06/M05 A3005 RMK A01 T00641053  RH  043%=      5-min Rain = 0
KSDS 051105Z 31014KT 06/M05 A3005 RMK A01 T00641051  RH  044%=      5-min Rain = 0
KSDS 051110Z 31014KT 07/M05 A3005 RMK A01 T00671047  RH  044%=      5-min Rain = 0
KSDS 051115Z 31014KT 07/M04 A3005 RMK A01 T00681044  RH  045%=      5-min Rain = 0
KSDS 051120Z 32015G21KT 07/M04 A3005 RMK A01 T00691040  RH  046%=      5-min Rain = 0
KSDS 051125Z 32016KT 07/M04 A3005 RMK A01 T00711038  RH  046%=      5-min Rain = 0
KSDS 051130Z 32015KT 07/M04 A3005 RMK A01 T00691037  RH  047%=      5-min Rain = 0
KSDS 051135Z 32015KT 07/M04 A3005 RMK A01 T00681036  RH  047%=      5-min Rain = 0
KSDS 051140Z 32014KT 07/M04 A3005 RMK A01 T00681036  RH  048%=      5-min Rain = 0
KSDS 051145Z 32013KT 07/M04 A3006 RMK A01 T00671035  RH  048%=      5-min Rain = 0
KSDS 051150Z 32015KT 07/M03 A3006 RMK A01 T00671034  RH  049%=      5-min Rain = 0
KSDS 051155Z 32015G21KT 07/M03 A3006 RMK A01 T00681032  RH  049%=      5-min Rain = 0
KSDS 051200Z 32016G21KT 07/M03 A3006 RMK A01 T00681031  RH  049%=      5-min Rain = 0
KSDS 051205Z 32016G21KT 07/M03 A3007 RMK A01 T00681030  RH  050%=      5-min Rain = 0
KSDS 051210Z 32017G24KT 07/M03 A3007 RMK A01 T00691027  RH  051%=      5-min Rain = 0
KSDS 051215Z 33020G26KT 07/M02 A3007 RMK A01 T00721023  RH  051%=      5-min Rain = 0
KSDS 051220Z 33021G27KT 07/M02 A3007 RMK A01 T00741020  RH  052%=      5-min Rain = 0
KSDS 051225Z 33021G27KT 07/M02 A3007 RMK A01 T00741019  RH  052%=      5-min Rain = 0
KSDS 051230Z 33020G26KT 07/M02 A3007 RMK A01 T00741019  RH  052%=      5-min Rain = 0
KSDS 051235Z 33020G25KT 07/M02 A3007 RMK A01 T00741018  RH  053%=      5-min Rain = 0
KSDS 051240Z 33020G26KT 07/M02 A3008 RMK A01 T00741017  RH  053%=      5-min Rain = 0
KSDS 051245Z 33020G26KT 07/M02 A3008 RMK A01 T00741016  RH  053%=      5-min Rain = 0
KSDS 051250Z 33020G25KT 07/M02 A3008 RMK A01 T00731015  RH  054%=      5-min Rain = 0
KSDS 051255Z 33020G26KT 07/M01 A3008 RMK A01 T00741014  RH  054%=      5-min Rain = 0
KSDS 051300Z 33020KT 07/M01 A3008 RMK A01 T00741013  RH  055%=      5-min Rain = 0
KSDS 051305Z 32018G25KT 08/M01 A3009 RMK A01 T00751012  RH  055%=      5-min Rain = 0
KSDS 051310Z 32018G23KT 07/M01 A3009 RMK A01 T00731012  RH  055%=      5-min Rain = 0
KSDS 051315Z 33017G24KT 07/M01 A3009 RMK A01 T00721011  RH  056%=      5-min Rain = 0
KSDS 051320Z 33018KT 07/M01 A3009 RMK A01 T00711009  RH  057%=      5-min Rain = 0
KSDS 051325Z 33020G27KT 07/M01 A301 RMK A01 T00731006  RH  058%=      5-min Rain = 0
KSDS 051330Z 33020G26KT 08/M00 A301 RMK A01 T00761003  RH  058%=      5-min Rain = 0
KSDS 051335Z 33019G27KT 08/M00 A301 RMK A01 T00781001  RH  058%=      5-min Rain = 0
KSDS 051340Z 33020G28KT 08/00 A301 RMK A01 T007900-0  RH  058%=      5-min Rain = 0
KSDS 051345Z 33023G29KT 08/00 A301 RMK A01 T00820002  RH  058%=      5-min Rain = 0
KSDS 051350Z 33020G25KT 08/00 A3011 RMK A01 T00820001  RH  057%=      5-min Rain = 0
KSDS 051355Z 33020G26KT 08/00 A3011 RMK A01 T00820001  RH  058%=      5-min Rain = 0
KSDS 051400Z 33021G26KT 08/00 A3011 RMK A01 T00830003  RH  058%=      5-min Rain = 0
KSDS 051405Z 33021G27KT 08/00 A3012 RMK A01 T00840004  RH  058%=      5-min Rain = 0
KSDS 051410Z 33021G27KT 08/01 A3012 RMK A01 T00840006  RH  059%=      5-min Rain = 0
KSDS 051415Z 33022G28KT 09/01 A3012 RMK A01 T00850007  RH  059%=      5-min Rain = 0
KSDS 051420Z 33021G29KT 08/01 A3012 RMK A01 T00840009  RH  060%=      5-min Rain = 0
KSDS 051425Z 33024G36KT 09/01 A3012 RMK A01 T00860013  RH  061%=      5-min Rain = 0
KSDS 051430Z 34022G29KT 09/02 A3013 RMK A01 T00880016  RH  061%=      5-min Rain = 0
KSDS 051435Z 34025G32KT 09/02 A3013 RMK A01 T00890017  RH  062%=      5-min Rain = 0
KSDS 051440Z 34024G31KT 09/02 A3013 RMK A01 T00890020  RH  063%=      5-min Rain = 0
KSDS 051445Z 34027G41KT 09/02 A3014 RMK A01 T00900023  RH  064%=      5-min Rain = 0
KSDS 051450Z 34027G38KT 09/03 A3014 RMK A01 T00910026  RH  065%=      5-min Rain = 0
KSDS 051455Z 34025G35KT 09/03 A3015 RMK A01 T00920026  RH  064%=      5-min Rain = 0
KSDS 051500Z 34024G36KT 10/02 A3015 RMK A01 T00950024  RH  063%=      5-min Rain = 0
KSDS 051505Z 34027G37KT 09/02 A3015 RMK A01 T00940023  RH  062%=      5-min Rain = 0
KSDS 051510Z 34029G39KT 09/02 A3016 RMK A01 T00940022  RH  062%=      5-min Rain = 0
KSDS 051515Z 34028G39KT 10/02 A3016 RMK A01 T00950022  RH  061%=      5-min Rain = 0
KSDS 051520Z 34030G39KT 10/02 A3016 RMK A01 T00950020  RH  060%=      5-min Rain = 0
KSDS 051525Z 34030G38KT 10/02 A3016 RMK A01 T01020021  RH  058%=      5-min Rain = 0
KSDS 051530Z 34028G36KT 11/02 A3016 RMK A01 T01060021  RH  056%=      5-min Rain = 0
KSDS 051535Z 34027G37KT 11/02 A3016 RMK A01 T01090021  RH  056%=      5-min Rain = 0
KSDS 051540Z 34029G37KT 11/02 A3017 RMK A01 T01090021  RH  055%=      5-min Rain = 0
KSDS 051545Z 34029G38KT 11/02 A3017 RMK A01 T01050021  RH  057%=      5-min Rain = 0
KSDS 051550Z 35028G36KT 11/02 A3017 RMK A01 T01050022  RH  057%=      5-min Rain = 0
KSDS 051555Z 34030G37KT 10/02 A3017 RMK A01 T01040023  RH  058%=      5-min Rain = 0
KSDS 051600Z 34029G37KT 10/02 A3017 RMK A01 T01020024  RH  059%=      5-min Rain = 0
KSDS 051605Z 34026G38KT 10/02 A3018 RMK A01 T01030024  RH  059%=      5-min Rain = 0
KSDS 051610Z 35029G36KT 10/03 A3018 RMK A01 T01010025  RH  060%=      5-min Rain = 0
KSDS 051615Z 35029G37KT 10/03 A3018 RMK A01 T01010025  RH  060%=      5-min Rain = 0
KSDS 051620Z 35030G36KT 10/03 A3019 RMK A01 T00980027  RH  062%=      5-min Rain = 0
KSDS 051625Z 36027G36KT 10/03 A3019 RMK A01 T00980029  RH  063%=      5-min Rain = 0
KSDS 051630Z 36024G31KT 10/03 A3019 RMK A01 T00980030  RH  064%=      5-min Rain = 0
KSDS 051635Z 36027G34KT 10/03 A3019 RMK A01 T00970031  RH  065%=      5-min Rain = 0
KSDS 051640Z 35026G35KT 10/03 A302 RMK A01 T00980032  RH  065%=      5-min Rain = 0
KSDS 051645Z 36023G31KT 10/03 A302 RMK A01 T00980033  RH  065%=      5-min Rain = 0
KSDS 051650Z 35023G32KT 10/03 A3021 RMK A01 T00970033  RH  065%=      5-min Rain = 0
KSDS 051655Z 36024G33KT 10/03 A3021 RMK A01 T00960033  RH  066%=      5-min Rain = 0
KSDS 051700Z 36025G34KT 09/03 A3021 RMK A01 T00920034  RH  069%=      5-min Rain = 0
KSDS 051705Z 36023G31KT 09/04 A3021 RMK A01 T00930035  RH  069%=      5-min Rain = 0
KSDS 051710Z 36024G30KT 09/04 A3021 RMK A01 T00930035  RH  068%=      5-min Rain = 0
KSDS 051715Z 00025G32KT 10/03 A3021 RMK A01 T00950034  RH  067%=      5-min Rain = 0
KSDS 051720Z 35024G32KT 10/03 A3021 RMK A01 T00970034  RH  066%=      5-min Rain = 0
KSDS 051725Z 36022G28KT 10/03 A3021 RMK A01 T01000034  RH  064%=      5-min Rain = 0
KSDS 051730Z 00025G32KT 10/03 A3021 RMK A01 T01020033  RH  063%=      5-min Rain = 0
KSDS 051735Z 35025G33KT 11/04 A3021 RMK A01 T01100035  RH  061%=      5-min Rain = 0
KSDS 051740Z 01025G31KT 11/03 A3021 RMK A01 T01100034  RH  060%=      5-min Rain = 0
KSDS 051745Z 00026G33KT 11/03 A3022 RMK A01 T01110033  RH  060%=      5-min Rain = 0
KSDS 051750Z 01023G35KT 11/03 A3022 RMK A01 T01090032  RH  060%=      5-min Rain = 0
KSDS 051755Z 01024G30KT 12/03 A3022 RMK A01 T01160032  RH  058%=      5-min Rain = 0
KSDS 051800Z 36024G31KT 12/03 A3022 RMK A01 T01210029  RH  054%=      5-min Rain = 0
KSDS 051805Z 00025G31KT 12/03 A3022 RMK A01 T01150027  RH  056%=      5-min Rain = 0
KSDS 051810Z 36022G28KT 12/03 A3022 RMK A01 T01160028  RH  055%=      5-min Rain = 0
KSDS 051815Z 36024G31KT 12/03 A3022 RMK A01 T01180028  RH  055%=      5-min Rain = 0
KSDS 051820Z 35025G31KT 12/03 A3023 RMK A01 T01170028  RH  055%=      5-min Rain = 0
KSDS 051825Z 35023G33KT 12/03 A3023 RMK A01 T01150028  RH  056%=      5-min Rain = 0
KSDS 051830Z 00025G33KT 12/03 A3023 RMK A01 T01150028  RH  056%=      5-min Rain = 0
KSDS 051835Z 00023G31KT 12/03 A3022 RMK A01 T01170028  RH  055%=      5-min Rain = 0
KSDS 051840Z 01021G28KT 12/03 A3022 RMK A01 T01230030  RH  054%=      5-min Rain = 0
KSDS 051845Z 01024G31KT 13/03 A3022 RMK A01 T01280028  RH  051%=      5-min Rain = 0
KSDS 051850Z 01023G31KT 13/03 A3022 RMK A01 T01270027  RH  051%=      5-min Rain = 0
KSDS 051855Z 01025G32KT 12/03 A3022 RMK A01 T01240027  RH  052%=      5-min Rain = 0
KSDS 051900Z 00026G32KT 12/03 A3022 RMK A01 T01240025  RH  052%=      5-min Rain = 0
KSDS 051905Z 01024G30KT 13/03 A3022 RMK A01 T01270025  RH  051%=      5-min Rain = 0
KSDS 051910Z 01023G30KT 13/03 A3022 RMK A01 T01300027  RH  051%=      5-min Rain = 0
KSDS 051915Z 00023G30KT 13/03 A3022 RMK A01 T01270028  RH  052%=      5-min Rain = 0
KSDS 051920Z 01024G32KT 12/03 A3023 RMK A01 T01190029  RH  055%=      5-min Rain = 0
KSDS 051925Z 00023G30KT 12/03 A3023 RMK A01 T01160028  RH  056%=      5-min Rain = 0
KSDS 051930Z 01023G30KT 12/03 A3023 RMK A01 T01190027  RH  054%=      5-min Rain = 0
KSDS 051935Z 01022G30KT 12/03 A3022 RMK A01 T01190029  RH  055%=      5-min Rain = 0
KSDS 051940Z 01023G30KT 12/03 A3022 RMK A01 T01230028  RH  053%=      5-min Rain = 0
KSDS 051945Z 02023G29KT 12/03 A3022 RMK A01 T01220027  RH  053%=      5-min Rain = 0
KSDS 051950Z 02020G30KT 13/03 A3022 RMK A01 T01260027  RH  052%=      5-min Rain = 0
KSDS 051955Z 02021G31KT 13/02 A3021 RMK A01 T01250023  RH  051%=      5-min Rain = 0
KSDS 052000Z 01022G28KT 13/02 A3022 RMK A01 T01250024  RH  051%=      5-min Rain = 0
KSDS 052005Z 01022G28KT 13/02 A3021 RMK A01 T01250023  RH  050%=      5-min Rain = 0
KSDS 052010Z 01021G29KT 13/03 A3021 RMK A01 T01330026  RH  049%=      5-min Rain = 0
KSDS 052015Z 02020G26KT 13/02 A3021 RMK A01 T01300022  RH  049%=      5-min Rain = 0
KSDS 052020Z 02022G28KT 13/02 A3021 RMK A01 T01300021  RH  048%=      5-min Rain = 0
KSDS 052025Z 02023G31KT 13/02 A3021 RMK A01 T01300020  RH  048%=      5-min Rain = 0
KSDS 052030Z 02023G29KT 13/02 A3021 RMK A01 T01340021  RH  047%=      5-min Rain = 0
KSDS 052035Z 02022G29KT 13/02 A3021 RMK A01 T01310020  RH  048%=      5-min Rain = 0
KSDS 052040Z 01023G28KT 13/02 A3021 RMK A01 T01280019  RH  048%=      5-min Rain = 0
KSDS 052045Z 01022G27KT 13/02 A3022 RMK A01 T01330019  RH  046%=      5-min Rain = 0
KSDS 052050Z 01024G32KT 13/02 A3022 RMK A01 T01270016  RH  047%=      5-min Rain = 0
KSDS 052055Z 01022G30KT 13/02 A3022 RMK A01 T01260018  RH  049%=      5-min Rain = 0
KSDS 052100Z 01020G25KT 13/02 A3022 RMK A01 T01250019  RH  049%=      5-min Rain = 0
KSDS 052105Z 02022G29KT 13/02 A3022 RMK A01 T01270016  RH  048%=      5-min Rain = 0
KSDS 052110Z 02020G25KT 12/02 A3023 RMK A01 T01230018  RH  049%=      5-min Rain = 0
KSDS 052115Z 01018G24KT 13/02 A3023 RMK A01 T01260020  RH  049%=      5-min Rain = 0
KSDS 052120Z 02020G28KT 13/02 A3024 RMK A01 T01250017  RH  048%=      5-min Rain = 0
KSDS 052125Z 02022G27KT 12/02 A3024 RMK A01 T01230017  RH  049%=      5-min Rain = 0
KSDS 052130Z 01021G29KT 12/02 A3024 RMK A01 T01200020  RH  051%=      5-min Rain = 0
KSDS 052135Z 00020G26KT 13/02 A3024 RMK A01 T01270021  RH  049%=      5-min Rain = 0
KSDS 052140Z 01018G27KT 13/02 A3024 RMK A01 T01310020  RH  047%=      5-min Rain = 0
KSDS 052145Z 01021G28KT 12/02 A3024 RMK A01 T01240019  RH  050%=      5-min Rain = 0
KSDS 052150Z 01021G27KT 12/02 A3025 RMK A01 T01200021  RH  051%=      5-min Rain = 0
KSDS 052155Z 02020G26KT 12/02 A3025 RMK A01 T01200021  RH  051%=      5-min Rain = 0
KSDS 052200Z 01021G26KT 12/02 A3025 RMK A01 T01200019  RH  051%=      5-min Rain = 0
KSDS 052205Z 00020G26KT 12/02 A3025 RMK A01 T01200019  RH  051%=      5-min Rain = 0
KSDS 052210Z 01021G28KT 12/02 A3025 RMK A01 T01210016  RH  049%=      5-min Rain = 0
KSDS 052215Z 01022G29KT 12/01 A3025 RMK A01 T01180013  RH  049%=      5-min Rain = 0
KSDS 052220Z 01023G31KT 12/02 A3025 RMK A01 T01150015  RH  051%=      5-min Rain = 0
KSDS 052225Z 02019G30KT 12/02 A3025 RMK A01 T01160016  RH  051%=      5-min Rain = 0
KSDS 052230Z 02020G27KT 12/02 A3025 RMK A01 T01180015  RH  050%=      5-min Rain = 0
KSDS 052235Z 02021G27KT 11/02 A3025 RMK A01 T01130017  RH  052%=      5-min Rain = 0
KSDS 052240Z 02018G24KT 12/02 A3025 RMK A01 T01150018  RH  052%=      5-min Rain = 0
KSDS 052245Z 01021G27KT 12/02 A3026 RMK A01 T01150016  RH  051%=      5-min Rain = 0
KSDS 052250Z 02020G27KT 11/02 A3026 RMK A01 T01130018  RH  053%=      5-min Rain = 0
KSDS 052255Z 01020G25KT 11/02 A3026 RMK A01 T01120019  RH  053%=      5-min Rain = 0
KSDS 052300Z 02020G25KT 11/02 A3026 RMK A01 T01120020  RH  054%=      5-min Rain = 0
KSDS 052305Z 01021G28KT 11/02 A3026 RMK A01 T01120020  RH  054%=      5-min Rain = 0
KSDS 052310Z 02020G25KT 11/02 A3026 RMK A01 T01120020  RH  054%=      5-min Rain = 0
KSDS 052315Z 02017KT 11/02 A3026 RMK A01 T01120020  RH  054%=      5-min Rain = 0
KSDS 052320Z 02016G22KT 11/02 A3026 RMK A01 T01130020  RH  054%=      5-min Rain = 0
KSDS 052325Z 02016G21KT 11/02 A3026 RMK A01 T01130020  RH  054%=      5-min Rain = 0
KSDS 052330Z 01017KT 11/02 A3027 RMK A01 T01140021  RH  054%=      5-min Rain = 0
KSDS 052335Z 02016G22KT 12/02 A3027 RMK A01 T01180022  RH  052%=      5-min Rain = 0
KSDS 052340Z 01017G23KT 12/02 A3027 RMK A01 T01190020  RH  051%=      5-min Rain = 0
KSDS 052345Z 01017G23KT 12/02 A3027 RMK A01 T01170020  RH  052%=      5-min Rain = 0
KSDS 052350Z 01015G20KT 12/02 A3027 RMK A01 T01170020  RH  052%=      5-min Rain = 0
KSDS 052355Z 01016G21KT 12/02 A3027 RMK A01 T01160019  RH  052%=      5-min Rain = 0
KSDS 060000Z 01015G20KT 12/02 A3027 RMK A01 T01170019  RH  052%=      5-min Rain = 0
KSDS 060005Z 01017KT 12/02 A3027 RMK A01 T01170018  RH  051%=      5-min Rain = 0
KSDS 060010Z 01015KT 12/02 A3027 RMK A01 T01170018  RH  052%=      5-min Rain = 0
KSDS 060015Z 01014G19KT 12/02 A3027 RMK A01 T01160018  RH  052%=      5-min Rain = 0
KSDS 060020Z 01012G17KT 12/02 A3027 RMK A01 T01150019  RH  052%=      5-min Rain = 0
KSDS 060025Z 02011KT 11/02 A3027 RMK A01 T01130019  RH  053%=      5-min Rain = 0
KSDS 060030Z 02012G17KT 11/02 A3028 RMK A01 T01120015  RH  052%=      5-min Rain = 0
KSDS 060035Z 02013KT 11/01 A3028 RMK A01 T01110010  RH  050%=      5-min Rain = 0
KSDS 060040Z 02011KT 11/01 A3028 RMK A01 T01080009  RH  051%=      5-min Rain = 0
KSDS 060045Z 02010KT 11/01 A3028 RMK A01 T01050010  RH  052%=      5-min Rain = 0
KSDS 060050Z 02010KT 10/01 A3028 RMK A01 T01030010  RH  053%=      5-min Rain = 0
KSDS 060055Z 02009KT 10/01 A3028 RMK A01 T01000010  RH  054%=      5-min Rain = 0
KSDS 060100Z 01008KT 10/01 A3028 RMK A01 T00980010  RH  055%=      5-min Rain = 0
KSDS 060105Z 01007KT 09/01 A3029 RMK A01 T00930008  RH  056%=      5-min Rain = 0
KSDS 060110Z 02006KT 09/01 A3029 RMK A01 T00880007  RH  057%=      5-min Rain = 0
KSDS 060115Z 02007KT 08/01 A3029 RMK A01 T00830006  RH  059%=      5-min Rain = 0
KSDS 060120Z 02007KT 08/01 A3029 RMK A01 T00820006  RH  060%=      5-min Rain = 0
KSDS 060125Z 02007KT 08/01 A3029 RMK A01 T00780005  RH  061%=      5-min Rain = 0
KSDS 060130Z 02007KT 07/00 A3029 RMK A01 T00730004  RH  062%=      5-min Rain = 0
KSDS 060135Z 02008KT 07/00 A3029 RMK A01 T00690002  RH  063%=      5-min Rain = 0
KSDS 060140Z 02008KT 07/00 A3029 RMK A01 T00660002  RH  064%=      5-min Rain = 0
KSDS 060145Z 02007KT 07/00 A3029 RMK A01 T00660002  RH  065%=      5-min Rain = 0
KSDS 060150Z 02007KT 07/00 A3029 RMK A01 T00650002  RH  065%=      5-min Rain = 0
KSDS 060155Z 02007KT 06/00 A303 RMK A01 T00640002  RH  065%=      5-min Rain = 0
KSDS 060200Z 01007KT 06/00 A303 RMK A01 T00630002  RH  066%=      5-min Rain = 0
KSDS 060205Z 01007KT 06/00 A303 RMK A01 T00600001  RH  066%=      5-min Rain = 0
KSDS 060210Z 01007KT 06/00 A303 RMK A01 T00580000  RH  067%=      5-min Rain = 0
KSDS 060215Z 01007KT 06/M00 A303 RMK A01 T00551001  RH  068%=      5-min Rain = 0
KSDS 060220Z 00007KT 05/M00 A303 RMK A01 T00531001  RH  069%=      5-min Rain = 0
KSDS 060225Z 00007KT 05/M00 A303 RMK A01 T00511002  RH  070%=      5-min Rain = 0
KSDS 060230Z 00006KT 05/M00 A303 RMK A01 T00491002  RH  070%=      5-min Rain = 0
KSDS 060235Z 36006KT 05/M00 A3031 RMK A01 T00471003  RH  071%=      5-min Rain = 0
KSDS 060240Z 35005KT 04/M01 A3031 RMK A01 T00431005  RH  071%=      5-min Rain = 0
KSDS 060245Z 34005KT 04/M01 A3031 RMK A01 T00411005  RH  073%=      5-min Rain = 0
KSDS 060250Z 33005KT 04/M01 A3031 RMK A01 T00391007  RH  073%=      5-min Rain = 0
KSDS 060255Z 33005KT 04/M01 A3032 RMK A01 T00381007  RH  073%=      5-min Rain = 0
KSDS 060300Z 33005KT 04/M01 A3032 RMK A01 T00371006  RH  074%=      5-min Rain = 0
KSDS 060305Z 32005KT 04/M00 A3032 RMK A01 T00391004  RH  074%=      5-min Rain = 0
KSDS 060310Z 30006KT 04/M01 A3032 RMK A01 T00361007  RH  074%=      5-min Rain = 0
KSDS 060315Z 31005KT 03/M01 A3032 RMK A01 T00311009  RH  076%=      5-min Rain = 0
KSDS 060320Z 32005KT 03/M01 A3032 RMK A01 T00311007  RH  077%=      5-min Rain = 0
KSDS 060325Z 30006KT 03/M01 A3032 RMK A01 T00321007  RH  076%=      5-min Rain = 0
KSDS 060330Z 30005KT 03/M01 A3033 RMK A01 T00301008  RH  077%=      5-min Rain = 0
KSDS 060335Z 30005KT 03/M01 A3033 RMK A01 T00291009  RH  077%=      5-min Rain = 0
KSDS 060340Z 31006KT 03/M01 A3033 RMK A01 T00261010  RH  078%=      5-min Rain = 0
KSDS 060345Z 32007KT 03/M01 A3033 RMK A01 T00251010  RH  078%=      5-min Rain = 0
KSDS 060350Z 32007KT 02/M01 A3033 RMK A01 T00241011  RH  079%=      5-min Rain = 0
KSDS 060355Z 32006KT 02/M01 A3033 RMK A01 T00231011  RH  079%=      5-min Rain = 0
KSDS 060400Z 32006KT 02/M01 A3033 RMK A01 T00241010  RH  079%=      5-min Rain = 0
KSDS 060405Z 32006KT 03/M01 A3034 RMK A01 T00251009  RH  079%=      5-min Rain = 0
KSDS 060410Z 32006KT 03/M01 A3033 RMK A01 T00251010  RH  079%=      5-min Rain = 0
KSDS 060415Z 33006KT 02/M01 A3033 RMK A01 T00231011  RH  079%=      5-min Rain = 0
KSDS 060420Z 33006KT 03/M01 A3033 RMK A01 T00251009  RH  079%=      5-min Rain = 0
KSDS 060425Z 33005KT 03/M01 A3033 RMK A01 T00261008  RH  079%=      5-min Rain = 0
KSDS 060430Z 34005KT 03/M01 A3033 RMK A01 T00281007  RH  078%=      5-min Rain = 0
KSDS 060435Z 35006KT 03/M01 A3033 RMK A01 T00291007  RH  078%=      5-min Rain = 0
KSDS 060440Z 00006KT 03/M01 A3033 RMK A01 T00321005  RH  078%=      5-min Rain = 0
KSDS 060445Z 36005KT 04/M00 A3034 RMK A01 T00351003  RH  077%=      5-min Rain = 0
KSDS 060450Z 36005KT 03/M00 A3034 RMK A01 T00341004  RH  077%=      5-min Rain = 0
KSDS 060455Z 01005KT 03/M01 A3034 RMK A01 T00331005  RH  077%=      5-min Rain = 0
KSDS 060500Z 00005KT 03/M00 A3034 RMK A01 T00331004  RH  077%=      5-min Rain = 0
KSDS 060505Z 35004KT 03/M01 A3034 RMK A01 T00311007  RH  077%=      5-min Rain = 0
KSDS 060510Z 35004KT 03/M01 A3034 RMK A01 T00261008  RH  079%=      5-min Rain = 0
KSDS 060515Z 36004KT 03/M01 A3034 RMK A01 T00261007  RH  079%=      5-min Rain = 0
KSDS 060520Z 34004KT 02/M01 A3034 RMK A01 T00221011  RH  080%=      5-min Rain = 0
KSDS 060525Z 36004KT 02/M01 A3034 RMK A01 T00201011  RH  081%=      5-min Rain = 0
KSDS 060530Z 36004KT 02/M01 A3034 RMK A01 T00211010  RH  081%=      5-min Rain = 0
KSDS 060535Z 36004KT 02/M01 A3034 RMK A01 T00191012  RH  081%=      5-min Rain = 0
KSDS 060540Z 35004KT 02/M01 A3034 RMK A01 T00161014  RH  081%=      5-min Rain = 0
KSDS 060545Z 36004KT 02/M01 A3034 RMK A01 T00151013  RH  082%=      5-min Rain = 0
KSDS 060550Z 01004KT 02/M01 A3033 RMK A01 T00181010  RH  082%=      5-min Rain = 0
KSDS 060555Z 01004KT 02/M01 A3033 RMK A01 T00191011  RH  081%=      5-min Rain = 0

Page generated in 0.0086 seconds.